createdAt,value
2023-03-05T00:01:24.380Z,94946.41
2023-03-05T00:03:53.272Z,94928.56
2023-03-05T00:06:21.815Z,94939.44
2023-03-05T00:08:50.150Z,94915.25
2023-03-05T00:11:18.246Z,94938.63
2023-03-05T00:13:48.015Z,94941.88
2023-03-05T00:16:17.272Z,94928.41
2023-03-05T00:18:46.370Z,94955.34
2023-03-05T00:21:20.662Z,94942.19
2023-03-05T00:23:50.699Z,94931.81
2023-03-05T00:26:18.631Z,94925.00
2023-03-05T00:28:49.975Z,94881.16
2023-03-05T00:31:18.339Z,94869.63
2023-03-05T00:33:46.447Z,94898.06
2023-03-05T00:36:14.314Z,94913.31
2023-03-05T00:38:42.079Z,94895.75
2023-03-05T00:41:10.100Z,94867.84
2023-03-05T00:43:37.830Z,94845.28
2023-03-05T00:46:07.270Z,94834.44
2023-03-05T00:48:35.281Z,94825.00
2023-03-05T00:51:03.688Z,94829.22
2023-03-05T00:53:31.920Z,94801.50
2023-03-05T00:55:59.882Z,94811.72
2023-03-05T00:58:27.825Z,94801.66
2023-03-05T01:00:59.194Z,94803.94
2023-03-05T01:03:28.771Z,94748.44
2023-03-05T01:05:56.710Z,94755.41
2023-03-05T01:08:24.895Z,94724.94
2023-03-05T01:10:53.154Z,94714.25
2023-03-05T01:13:21.470Z,94674.84
2023-03-05T01:15:51.022Z,94684.72
2023-03-05T01:18:19.551Z,94661.56
2023-03-05T01:20:49.301Z,94666.09
2023-03-05T01:23:17.816Z,94646.00
2023-03-05T01:25:45.719Z,94645.34
2023-03-05T01:28:14.207Z,94647.94
2023-03-05T01:30:41.948Z,94634.31
2023-03-05T01:33:09.720Z,94602.59
2023-03-05T01:35:37.479Z,94585.75
2023-03-05T01:38:06.644Z,94570.47
2023-03-05T01:40:34.648Z,94541.97
2023-03-05T01:43:20.231Z,94524.50
2023-03-05T01:46:34.660Z,94516.25
2023-03-05T01:49:18.520Z,94489.03
2023-03-05T01:51:52.541Z,94473.84
2023-03-05T01:54:25.650Z,94493.88
2023-03-05T01:56:57.515Z,94504.25
2023-03-05T01:59:27.590Z,94506.69
2023-03-05T02:01:58.866Z,94520.28
2023-03-05T02:04:33.560Z,94478.22
2023-03-05T02:07:01.953Z,94456.16
2023-03-05T02:09:31.138Z,94456.50
2023-03-05T02:11:59.238Z,94441.28
2023-03-05T02:14:28.055Z,94393.38
2023-03-05T02:16:55.895Z,94403.41
2023-03-05T02:19:23.719Z,94422.03
2023-03-05T02:21:53.002Z,94368.00
2023-03-05T02:24:35.289Z,94331.94
2023-03-05T02:27:05.885Z,94304.59
2023-03-05T02:29:35.068Z,94256.88
2023-03-05T02:32:03.516Z,94282.13
2023-03-05T02:34:31.531Z,94280.16
2023-03-05T02:37:02.614Z,94288.56
2023-03-05T02:39:30.556Z,94288.75
2023-03-05T02:41:58.496Z,94287.78
2023-03-05T02:44:27.091Z,94268.72
2023-03-05T02:46:54.851Z,94250.09
2023-03-05T02:49:22.747Z,94240.06
2023-03-05T02:51:50.602Z,94195.63
2023-03-05T02:54:19.728Z,94144.13
2023-03-05T02:56:47.577Z,94167.41
2023-03-05T02:59:15.505Z,94175.59
2023-03-05T03:01:43.291Z,94256.06
2023-03-05T03:04:11.020Z,94222.63
2023-03-05T03:06:38.763Z,94228.44
2023-03-05T03:09:06.744Z,94200.00
2023-03-05T03:11:35.903Z,94194.81
2023-03-05T03:14:03.679Z,94193.53
2023-03-05T03:16:31.444Z,94191.75
2023-03-05T03:18:59.298Z,94224.88
2023-03-05T03:21:27.324Z,94221.66
2023-03-05T03:23:55.100Z,94209.03
2023-03-05T03:26:22.923Z,94196.78
2023-03-05T03:28:52.192Z,94169.44
2023-03-05T03:31:20.391Z,94161.53
2023-03-05T03:33:48.616Z,94180.78
2023-03-05T03:36:16.366Z,94241.84
2023-03-05T03:38:44.206Z,94208.06
2023-03-05T03:41:11.932Z,94214.84
2023-03-05T03:43:39.734Z,94214.84
2023-03-05T03:46:08.977Z,94215.03
2023-03-05T03:48:37.020Z,94174.78
2023-03-05T03:51:06.727Z,94178.19
2023-03-05T03:53:34.738Z,94165.59
2023-03-05T03:56:02.572Z,94152.31
2023-03-05T03:58:30.610Z,94118.88
2023-03-05T04:00:58.353Z,94093.88
2023-03-05T04:03:27.608Z,94095.31
2023-03-05T04:05:55.406Z,94083.53
2023-03-05T04:08:23.191Z,94090.78
2023-03-05T04:10:50.961Z,94116.31
2023-03-05T04:13:18.752Z,94128.91
2023-03-05T04:15:46.632Z,94131.16
2023-03-05T04:18:14.465Z,94136.97
2023-03-05T04:20:43.705Z,94141.50
2023-03-05T04:23:11.519Z,94130.19
2023-03-05T04:25:39.339Z,94141.34
2023-03-05T04:28:07.354Z,94148.94
2023-03-05T04:30:35.457Z,94131.16
2023-03-05T04:33:04.075Z,94178.03
2023-03-05T04:35:32.261Z,94176.09
2023-03-05T04:38:01.645Z,94184.00
2023-03-05T04:40:29.689Z,94179.97
2023-03-05T04:42:57.602Z,94151.50
2023-03-05T04:45:25.439Z,94135.53
2023-03-05T04:47:53.428Z,94131.16
2023-03-05T04:50:21.521Z,94102.09
2023-03-05T04:52:49.619Z,94058.50
2023-03-05T04:55:19.711Z,94061.09
2023-03-05T04:57:47.730Z,94051.06
2023-03-05T05:00:18.075Z,94042.03
2023-03-05T05:02:48.172Z,94074.31
2023-03-05T05:05:18.524Z,94066.72
2023-03-05T05:07:47.098Z,94052.66
2023-03-05T05:10:16.165Z,94031.50
2023-03-05T05:12:45.294Z,94076.91
2023-03-05T05:15:13.948Z,94116.31
2023-03-05T05:17:41.707Z,94084.97
2023-03-05T05:20:11.947Z,94080.13
2023-03-05T05:22:39.750Z,94090.78
2023-03-05T05:25:08.474Z,94126.31
2023-03-05T05:27:36.257Z,94129.53
2023-03-05T05:30:06.397Z,94145.34
2023-03-05T05:32:34.681Z,94153.63
2023-03-05T05:35:02.457Z,94181.59
2023-03-05T05:37:31.127Z,94179.97
2023-03-05T05:39:59.226Z,94163.81
2023-03-05T05:42:27.886Z,94148.75
2023-03-05T05:44:55.783Z,94126.94
2023-03-05T05:47:24.999Z,94097.56
2023-03-05T05:49:52.843Z,94084.31
2023-03-05T05:52:20.638Z,94092.72
2023-03-05T05:54:48.612Z,94084.38
2023-03-05T05:57:16.651Z,94103.53
2023-03-05T05:59:44.453Z,94111.94
2023-03-05T06:02:12.320Z,94118.72
2023-03-05T06:04:41.572Z,94126.94
2023-03-05T06:07:09.802Z,94128.56
2023-03-05T06:09:37.860Z,94159.75
2023-03-05T06:12:06.694Z,94219.06
2023-03-05T06:14:34.618Z,94242.47
2023-03-05T06:17:02.393Z,94273.38
2023-03-05T06:19:30.505Z,94287.78
2023-03-05T06:21:59.689Z,94318.00
2023-03-05T06:24:27.560Z,94374.78
2023-03-05T06:26:55.447Z,94416.69
2023-03-05T06:29:23.236Z,94461.03
2023-03-05T06:31:51.002Z,94532.75
2023-03-05T06:34:18.822Z,94611.50
2023-03-05T06:36:46.565Z,94812.19
2023-03-05T06:39:16.046Z,94906.16
2023-03-05T06:41:44.669Z,94934.91
2023-03-05T06:44:12.548Z,94917.38
2023-03-05T06:46:40.606Z,94904.22
2023-03-05T06:49:09.593Z,94925.00
2023-03-05T06:51:38.731Z,94896.44
2023-03-05T06:54:08.796Z,94886.34
2023-03-05T06:56:39.829Z,94853.56
2023-03-05T06:59:07.910Z,94853.56
2023-03-05T07:01:36.199Z,94871.91
2023-03-05T07:04:04.486Z,94899.69
2023-03-05T07:06:34.161Z,94919.81
2023-03-05T07:09:02.596Z,95042.56
2023-03-05T07:11:31.186Z,95189.19
2023-03-05T07:14:00.808Z,95378.91
2023-03-05T07:16:30.691Z,95537.75
2023-03-05T07:18:59.870Z,95656.91
2023-03-05T07:21:29.759Z,95740.06
2023-03-05T07:24:00.116Z,96010.56
2023-03-05T07:26:28.831Z,96292.94
2023-03-05T07:28:57.610Z,96529.84
2023-03-05T07:31:31.554Z,96933.41
2023-03-05T07:34:01.116Z,97211.13
2023-03-05T07:36:29.138Z,97495.72
2023-03-05T07:38:57.168Z,97759.59
2023-03-05T07:41:25.147Z,97921.28
2023-03-05T07:43:55.125Z,97839.81
2023-03-05T07:46:24.963Z,97918.81
2023-03-05T07:48:55.518Z,98202.06
2023-03-05T07:51:25.086Z,98429.69
2023-03-05T07:53:55.179Z,98658.72
2023-03-05T07:56:24.035Z,98987.06
2023-03-05T07:58:51.839Z,98991.50
2023-03-05T08:01:21.120Z,98750.34
2023-03-05T08:03:48.901Z,98657.28
2023-03-05T08:06:18.247Z,98609.84
2023-03-05T08:08:46.014Z,98378.50
2023-03-05T08:11:16.058Z,98362.94
2023-03-05T08:13:44.888Z,98525.66
2023-03-05T08:16:14.865Z,98462.06
2023-03-05T08:18:43.606Z,98385.47
2023-03-05T08:21:20.538Z,98232.59
2023-03-05T08:23:48.366Z,98004.19
2023-03-05T08:26:17.885Z,97680.53
2023-03-05T08:28:46.089Z,97571.22
2023-03-05T08:31:15.898Z,97471.94
2023-03-05T08:33:44.407Z,97295.94
2023-03-05T08:36:13.272Z,97097.06
2023-03-05T08:38:44.593Z,97066.16
2023-03-05T08:41:12.445Z,96996.53
2023-03-05T08:43:40.577Z,96965.66
2023-03-05T08:46:09.053Z,96915.34
2023-03-05T08:48:36.894Z,96822.53
2023-03-05T08:51:08.419Z,96719.19
2023-03-05T08:53:36.637Z,96700.69
2023-03-05T08:56:06.730Z,96681.31
2023-03-05T08:58:34.602Z,96769.53
2023-03-05T09:01:02.605Z,96924.03
2023-03-05T09:03:30.628Z,97098.56
2023-03-05T09:06:01.284Z,97218.06
2023-03-05T09:08:29.286Z,97415.28
2023-03-05T09:10:57.444Z,97764.72
2023-03-05T09:13:26.537Z,98224.13
2023-03-05T09:15:57.901Z,98571.28
2023-03-05T09:18:25.705Z,98961.78
2023-03-05T09:20:53.826Z,99374.00
2023-03-05T09:23:22.225Z,99762.56
2023-03-05T09:25:50.763Z,100116.97
2023-03-05T09:28:18.801Z,99874.78
2023-03-05T09:30:48.048Z,99444.28
2023-03-05T09:33:15.969Z,99425.28
2023-03-05T09:35:44.144Z,99241.03
2023-03-05T09:38:11.941Z,99241.03
2023-03-05T09:40:47.122Z,99240.31
2023-03-05T09:43:26.892Z,99423.47
2023-03-05T09:46:13.649Z,99702.16
2023-03-05T09:48:51.461Z,100010.25
2023-03-05T09:51:23.950Z,100194.50
2023-03-05T09:53:59.840Z,100172.97
2023-03-05T09:56:31.785Z,100191.09
2023-03-05T09:59:04.702Z,100231.25
2023-03-05T10:01:38.934Z,99764.03
2023-03-05T10:04:12.373Z,99802.25
2023-03-05T10:06:48.359Z,99940.91
2023-03-05T10:09:24.825Z,100216.25
2023-03-05T10:11:58.064Z,100609.31
2023-03-05T10:14:30.245Z,101020.66
2023-03-05T10:17:28.277Z,101255.03
2023-03-05T10:20:23.607Z,101316.16
2023-03-05T10:23:05.271Z,101553.47
2023-03-05T10:25:51.252Z,101942.13
2023-03-05T10:28:23.523Z,102423.38
2023-03-05T10:31:09.893Z,102466.47
2023-03-05T10:33:48.731Z,102315.06
2023-03-05T10:36:38.984Z,102341.50
2023-03-05T10:39:33.140Z,102762.00
2023-03-05T10:42:08.074Z,102519.31
2023-03-05T10:44:39.727Z,102336.31
2023-03-05T10:47:16.951Z,102354.16
2023-03-05T10:49:51.339Z,102381.34
2023-03-05T10:52:22.227Z,102623.41
2023-03-05T10:54:50.754Z,102475.41
2023-03-05T10:57:21.288Z,102657.94
2023-03-05T10:59:52.384Z,102263.44
2023-03-05T11:02:21.873Z,102527.47
2023-03-05T11:04:52.568Z,102221.16
2023-03-05T11:07:39.614Z,102218.56
2023-03-05T11:10:26.194Z,102404.25
2023-03-05T11:12:57.922Z,102515.25
2023-03-05T11:15:31.360Z,103186.00
2023-03-05T11:18:19.395Z,103064.91
2023-03-05T11:20:48.968Z,101895.25
2023-03-05T11:23:19.255Z,101824.13
2023-03-05T11:26:03.039Z,101775.66
2023-03-05T11:28:34.324Z,101672.22
2023-03-05T11:31:09.425Z,101189.88
2023-03-05T11:33:38.878Z,100969.47
2023-03-05T11:36:26.930Z,100632.22
2023-03-05T11:38:58.799Z,100321.13
2023-03-05T11:41:32.222Z,100112.59
2023-03-05T11:44:05.743Z,99574.03
2023-03-05T11:46:42.005Z,99080.34
2023-03-05T11:49:15.863Z,98904.94
2023-03-05T11:51:56.769Z,98674.19
2023-03-05T11:54:31.703Z,98479.66
2023-03-05T11:57:00.902Z,98286.03
2023-03-05T11:59:32.723Z,98214.94
2023-03-05T12:02:01.217Z,98153.97
2023-03-05T12:04:29.016Z,98105.00
2023-03-05T12:07:01.176Z,97934.28
2023-03-05T12:09:40.885Z,97841.16
2023-03-05T12:12:19.663Z,97763.59
2023-03-05T12:14:51.690Z,97692.56
2023-03-05T12:17:25.784Z,97617.97
2023-03-05T12:19:59.656Z,97515.34
2023-03-05T12:22:35.356Z,97510.66
2023-03-05T12:25:26.873Z,97561.28
2023-03-05T12:27:55.020Z,97563.22
2023-03-05T12:30:56.581Z,97741.00
2023-03-05T12:33:34.214Z,98165.66
2023-03-05T12:36:34.859Z,98229.81
2023-03-05T12:39:03.362Z,98222.88
2023-03-05T12:41:36.536Z,98117.50
2023-03-05T12:44:18.799Z,97964.66
2023-03-05T12:47:17.800Z,97817.31
2023-03-05T12:49:48.308Z,97867.09
2023-03-05T12:52:24.549Z,97940.53
2023-03-05T12:55:20.313Z,97981.84
2023-03-05T12:57:53.719Z,97773.56
2023-03-05T13:00:28.233Z,97603.72
2023-03-05T13:02:59.828Z,97478.44
2023-03-05T13:05:30.782Z,97398.72
2023-03-05T13:08:13.457Z,97265.53
2023-03-05T13:10:43.305Z,97209.94
2023-03-05T13:13:15.890Z,97139.41
2023-03-05T13:15:47.240Z,97086.47
2023-03-05T13:18:21.481Z,97106.19
2023-03-05T13:20:52.226Z,97060.78
2023-03-05T13:23:24.794Z,97072.94
2023-03-05T13:26:02.167Z,97082.88
2023-03-05T13:28:30.940Z,97057.19
2023-03-05T13:31:02.310Z,96973.00
2023-03-05T13:33:33.349Z,96961.81
2023-03-05T13:36:01.674Z,97045.63
2023-03-05T13:38:33.393Z,97065.75
2023-03-05T13:41:19.484Z,97031.84
2023-03-05T13:43:50.445Z,96931.22
2023-03-05T13:46:30.330Z,96894.44
2023-03-05T13:49:19.187Z,96925.97
2023-03-05T13:51:48.881Z,96957.38
2023-03-05T13:54:18.884Z,96960.97
2023-03-05T13:56:51.644Z,96960.84
2023-03-05T13:59:20.743Z,96936.19
2023-03-05T14:01:49.461Z,96922.41
2023-03-05T14:04:22.279Z,96862.09
2023-03-05T14:06:54.439Z,96796.53
2023-03-05T14:09:24.662Z,96676.53
2023-03-05T14:11:55.221Z,96625.47
2023-03-05T14:14:24.238Z,96589.59
2023-03-05T14:16:52.184Z,96569.41
2023-03-05T14:19:42.398Z,96511.66
2023-03-05T14:22:31.346Z,96576.94
2023-03-05T14:24:59.165Z,96593.69
2023-03-05T14:27:27.203Z,96646.53
2023-03-05T14:29:55.391Z,96634.22
2023-03-05T14:32:29.251Z,96711.16
2023-03-05T14:35:01.175Z,96752.75
2023-03-05T14:37:34.230Z,96677.34
2023-03-05T14:40:06.041Z,96591.00
2023-03-05T14:42:39.025Z,96623.53
2023-03-05T14:45:15.941Z,96572.69
2023-03-05T14:47:43.769Z,96554.66
2023-03-05T14:50:17.302Z,96506.56
2023-03-05T14:52:46.148Z,96478.25
2023-03-05T14:55:18.382Z,96529.38
2023-03-05T14:57:47.015Z,96558.94
2023-03-05T15:00:18.546Z,96524.16
2023-03-05T15:02:46.444Z,96514.81
2023-03-05T15:05:16.154Z,96488.41
2023-03-05T15:07:47.232Z,96490.88
2023-03-05T15:10:16.498Z,96469.75
2023-03-05T15:12:44.672Z,96417.81
2023-03-05T15:15:14.378Z,96391.41
2023-03-05T15:17:44.546Z,96345.56
2023-03-05T15:20:18.463Z,96324.75
2023-03-05T15:22:46.337Z,96302.31
2023-03-05T15:25:14.607Z,96277.59
2023-03-05T15:27:42.458Z,96282.16
2023-03-05T15:30:18.620Z,96311.53
2023-03-05T15:32:46.346Z,96304.09
2023-03-05T15:35:14.211Z,96303.00
2023-03-05T15:37:43.448Z,96328.53
2023-03-05T15:40:12.505Z,96314.97
2023-03-05T15:42:40.500Z,96290.38
2023-03-05T15:45:09.085Z,96277.75
2023-03-05T15:47:36.865Z,96274.47
2023-03-05T15:50:05.021Z,96236.88
2023-03-05T15:52:33.137Z,96214.94
2023-03-05T15:55:02.769Z,96197.91
2023-03-05T15:57:30.541Z,96180.50
2023-03-05T15:59:58.303Z,96161.88
2023-03-05T16:02:26.113Z,96138.66
2023-03-05T16:04:53.904Z,96116.75
2023-03-05T16:07:23.691Z,96128.53
2023-03-05T16:09:53.139Z,96126.59
2023-03-05T16:12:26.594Z,96104.97
2023-03-05T16:14:54.362Z,96099.75
2023-03-05T16:17:24.906Z,96079.13
2023-03-05T16:19:56.693Z,96076.69
2023-03-05T16:22:24.701Z,96056.41
2023-03-05T16:24:52.484Z,96058.88
2023-03-05T16:27:20.244Z,96005.59
2023-03-05T16:29:51.147Z,96001.34
2023-03-05T16:32:18.994Z,95973.38
2023-03-05T16:34:46.804Z,95953.94
2023-03-05T16:37:20.433Z,95962.44
2023-03-05T16:39:48.403Z,95915.06
2023-03-05T16:42:16.875Z,95886.00
2023-03-05T16:44:45.288Z,95854.13
2023-03-05T16:47:14.378Z,95810.88
2023-03-05T16:49:42.395Z,95793.25
2023-03-05T16:52:18.811Z,95798.16
2023-03-05T16:54:47.664Z,95742.16
2023-03-05T16:57:16.341Z,95722.91
2023-03-05T16:59:44.490Z,95675.78
2023-03-05T17:02:15.360Z,95657.81
2023-03-05T17:04:43.197Z,95646.91
2023-03-05T17:07:11.891Z,95629.94
2023-03-05T17:09:39.794Z,95629.78
2023-03-05T17:12:08.641Z,95577.88
2023-03-05T17:14:36.483Z,95590.34
2023-03-05T17:17:04.257Z,95555.47
2023-03-05T17:19:33.346Z,95496.16
2023-03-05T17:22:01.108Z,95504.78
2023-03-05T17:24:30.153Z,95475.59
2023-03-05T17:26:57.966Z,95454.78
2023-03-05T17:29:25.837Z,95458.34
2023-03-05T17:31:54.131Z,95465.84
2023-03-05T17:34:33.299Z,95444.81
2023-03-05T17:37:03.238Z,95427.72
2023-03-05T17:39:31.386Z,95394.19
2023-03-05T17:41:59.842Z,95363.09
2023-03-05T17:44:27.620Z,95365.53
2023-03-05T17:46:55.433Z,95358.69
2023-03-05T17:49:23.535Z,95329.38
2023-03-05T17:51:51.416Z,95324.84
2023-03-05T17:54:20.864Z,95304.00
2023-03-05T17:56:48.838Z,95262.84
2023-03-05T17:59:16.643Z,95273.44
2023-03-05T18:01:44.564Z,95285.63
2023-03-05T18:04:12.816Z,95285.47
2023-03-05T18:06:40.741Z,95269.50
2023-03-05T18:09:08.807Z,95272.78
2023-03-05T18:11:38.380Z,95242.19
2023-03-05T18:14:06.309Z,95262.53
2023-03-05T18:16:35.352Z,95275.22
2023-03-05T18:19:03.121Z,95270.16
2023-03-05T18:21:30.854Z,95252.28
2023-03-05T18:23:58.683Z,95272.78
2023-03-05T18:26:26.587Z,95260.75
2023-03-05T18:28:55.724Z,95259.13
2023-03-05T18:31:23.525Z,95241.53
2023-03-05T18:33:51.632Z,95253.41
2023-03-05T18:36:19.829Z,95275.06
2023-03-05T18:38:47.690Z,95272.78
2023-03-05T18:41:21.190Z,95278.63
2023-03-05T18:43:49.005Z,95272.44
2023-03-05T18:46:18.470Z,95227.22
2023-03-05T18:48:48.015Z,95212.75
2023-03-05T18:51:17.894Z,95195.34
2023-03-05T18:53:45.868Z,95171.59
2023-03-05T18:56:14.140Z,95176.47
2023-03-05T18:58:42.083Z,95169.66
2023-03-05T19:01:09.874Z,95176.47
2023-03-05T19:03:39.088Z,95189.81
2023-03-05T19:06:07.878Z,95167.38
2023-03-05T19:08:35.751Z,95131.28
2023-03-05T19:11:04.637Z,95119.25
2023-03-05T19:13:39.545Z,95109.97
2023-03-05T19:16:09.109Z,95097.47
2023-03-05T19:18:43.839Z,95107.53
2023-03-05T19:21:12.995Z,95086.44
2023-03-05T19:23:40.996Z,95079.28
2023-03-05T19:26:09.190Z,95068.88
2023-03-05T19:28:36.985Z,95045.16
2023-03-05T19:31:04.943Z,95036.72
2023-03-05T19:33:32.794Z,95015.25
2023-03-05T19:36:00.587Z,95010.72
2023-03-05T19:38:29.765Z,95011.34
2023-03-05T19:40:57.483Z,95019.84
2023-03-05T19:43:25.198Z,94999.66
2023-03-05T19:45:53.097Z,94985.22
2023-03-05T19:48:20.877Z,94994.47
2023-03-05T19:50:48.671Z,95010.88
2023-03-05T19:53:16.460Z,95031.53
2023-03-05T19:55:45.585Z,95045.16
2023-03-05T19:58:13.353Z,95088.22
2023-03-05T20:00:41.228Z,95091.47
2023-03-05T20:03:09.279Z,95087.41
2023-03-05T20:05:37.149Z,95103.97
2023-03-05T20:08:05.109Z,95115.19
2023-03-05T20:10:33.001Z,95120.06
2023-03-05T20:13:02.687Z,95109.97
2023-03-05T20:15:30.632Z,95118.28
2023-03-05T20:17:58.767Z,95117.63
2023-03-05T20:20:26.681Z,95138.78
2023-03-05T20:22:54.744Z,95125.13
2023-03-05T20:25:24.852Z,95144.63
2023-03-05T20:27:53.204Z,95123.63
2023-03-05T20:30:22.470Z,95116.00
2023-03-05T20:32:50.324Z,95067.75
2023-03-05T20:35:19.345Z,95008.75
2023-03-05T20:38:00.186Z,94969.16
2023-03-05T20:40:28.223Z,94925.97
2023-03-05T20:42:55.998Z,94850.66
2023-03-05T20:45:25.128Z,94850.00
2023-03-05T20:47:52.878Z,94850.00
2023-03-05T20:50:20.834Z,94885.38
2023-03-05T20:52:48.656Z,94902.25
2023-03-05T20:55:16.436Z,94885.22
2023-03-05T20:57:45.494Z,94881.81
2023-03-05T21:00:14.298Z,94888.63
2023-03-05T21:02:43.531Z,94901.28
2023-03-05T21:05:12.594Z,94902.88
2023-03-05T21:07:40.457Z,94846.44
2023-03-05T21:10:08.748Z,94790.44
2023-03-05T21:12:36.560Z,94730.63
2023-03-05T21:15:04.831Z,94670.31
2023-03-05T21:17:32.624Z,94628.34
2023-03-05T21:20:05.787Z,94574.38
2023-03-05T21:22:33.818Z,94545.25
2023-03-05T21:25:13.363Z,94492.44
2023-03-05T21:27:41.069Z,94428.69
2023-03-05T21:30:10.386Z,94383.34
2023-03-05T21:32:38.420Z,94368.97
2023-03-05T21:35:08.525Z,94320.28
2023-03-05T21:37:42.316Z,94269.97
2023-03-05T21:40:11.920Z,94238.16
2023-03-05T21:42:40.044Z,94210.34
2023-03-05T21:45:09.466Z,94222.31
2023-03-05T21:47:37.186Z,94250.75
2023-03-05T21:50:07.708Z,94227.16
2023-03-05T21:52:35.901Z,94239.13
2023-03-05T21:55:03.773Z,94230.56
2023-03-05T21:57:32.435Z,94234.91
2023-03-05T22:00:00.278Z,94239.94
2023-03-05T22:02:28.264Z,94247.19
2023-03-05T22:04:56.038Z,94267.22
2023-03-05T22:07:25.396Z,94291.84
2023-03-05T22:09:56.000Z,94270.78
2023-03-05T22:12:33.445Z,94290.06
2023-03-05T22:15:01.338Z,94316.09
2023-03-05T22:17:29.081Z,94326.09
2023-03-05T22:19:57.236Z,94334.50
2023-03-05T22:22:26.350Z,94338.72
2023-03-05T22:24:54.162Z,94334.50
2023-03-05T22:27:21.950Z,94328.53
2023-03-05T22:29:49.722Z,94351.34
2023-03-05T22:32:17.439Z,94360.56
2023-03-05T22:34:45.253Z,94378.19
2023-03-05T22:37:13.037Z,94378.81
2023-03-05T22:39:42.200Z,94393.25
2023-03-05T22:42:09.973Z,94372.34
2023-03-05T22:44:37.723Z,94371.56
2023-03-05T22:47:06.143Z,94410.53
2023-03-05T22:49:34.077Z,94363.31
2023-03-05T22:52:01.831Z,94336.13
2023-03-05T22:54:29.623Z,94307.03
2023-03-05T22:56:58.828Z,94252.38
2023-03-05T22:59:26.667Z,94209.53
2023-03-05T23:01:54.493Z,94180.59
2023-03-05T23:04:40.148Z,94114.22
2023-03-05T23:07:08.054Z,94042.09
2023-03-05T23:09:35.873Z,94017.22
2023-03-05T23:12:05.708Z,93966.19
2023-03-05T23:14:33.494Z,93897.03
2023-03-05T23:17:01.206Z,93875.91
2023-03-05T23:19:28.994Z,93860.25
2023-03-05T23:21:56.783Z,93836.53
2023-03-05T23:24:24.516Z,93856.84
2023-03-05T23:26:52.250Z,93804.31
2023-03-05T23:29:21.509Z,93778.53
2023-03-05T23:31:49.292Z,93791.56
2023-03-05T23:34:17.064Z,93778.38
2023-03-05T23:36:44.828Z,93776.75
2023-03-05T23:39:12.602Z,93764.81
2023-03-05T23:41:40.477Z,93731.63
2023-03-05T23:44:08.276Z,93745.00
2023-03-05T23:46:37.441Z,93709.09
2023-03-05T23:49:05.241Z,93695.09
2023-03-05T23:51:32.975Z,93708.91
2023-03-05T23:54:00.879Z,93725.66
2023-03-05T23:56:28.778Z,93772.56
2023-03-05T23:59:00.476Z,93833.66
